sensor_id;sensor_type;location;lat;lon;timestamp;pressure;altitude;pressure_sealevel;temperature;humidity
57990;BME280;58373;51.824;5.564;2023-01-27T00:00:05;102438.84;;;2.89;100.00
57990;BME280;58373;51.824;5.564;2023-01-27T00:02:31;102437.91;;;2.91;100.00
57990;BME280;58373;51.824;5.564;2023-01-27T00:04:57;102437.16;;;2.88;100.00
57990;BME280;58373;51.824;5.564;2023-01-27T00:07:22;102442.28;;;2.88;100.00
57990;BME280;58373;51.824;5.564;2023-01-27T00:09:47;102440.69;;;2.84;100.00
57990;BME280;58373;51.824;5.564;2023-01-27T00:12:20;102439.88;;;2.80;100.00
57990;BME280;58373;51.824;5.564;2023-01-27T00:15:06;102444.19;;;2.80;100.00
57990;BME280;58373;51.824;5.564;2023-01-27T00:17:32;102433.13;;;2.78;100.00
57990;BME280;58373;51.824;5.564;2023-01-27T00:19:58;102440.88;;;2.75;100.00
57990;BME280;58373;51.824;5.564;2023-01-27T00:22:23;102442.53;;;2.77;100.00
57990;BME280;58373;51.824;5.564;2023-01-27T00:25:07;102440.88;;;2.75;100.00
57990;BME280;58373;51.824;5.564;2023-01-27T00:27:32;102444.31;;;2.74;100.00
57990;BME280;58373;51.824;5.564;2023-01-27T00:29:58;102449.53;;;2.71;100.00
57990;BME280;58373;51.824;5.564;2023-01-27T00:32:23;102446.09;;;2.72;100.00
57990;BME280;58373;51.824;5.564;2023-01-27T00:35:07;102432.53;;;2.66;100.00
57990;BME280;58373;51.824;5.564;2023-01-27T00:37:32;102429.09;;;2.67;100.00
57990;BME280;58373;51.824;5.564;2023-01-27T00:39:58;102447.84;;;2.70;100.00
57990;BME280;58373;51.824;5.564;2023-01-27T00:42:23;102447.91;;;2.66;100.00
57990;BME280;58373;51.824;5.564;2023-01-27T00:44:48;102439.44;;;2.64;100.00
57990;BME280;58373;51.824;5.564;2023-01-27T00:47:32;102442.84;;;2.63;100.00
57990;BME280;58373;51.824;5.564;2023-01-27T00:49:58;102443.63;;;2.67;100.00
57990;BME280;58373;51.824;5.564;2023-01-27T00:52:24;102452.16;;;2.67;100.00
57990;BME280;58373;51.824;5.564;2023-01-27T00:54:50;102445.41;;;2.63;100.00
57990;BME280;58373;51.824;5.564;2023-01-27T00:57:15;102452.19;;;2.66;100.00
57990;BME280;58373;51.824;5.564;2023-01-27T00:59:40;102461.59;;;2.65;100.00
57990;BME280;58373;51.824;5.564;2023-01-27T01:02:06;102448.00;;;2.62;100.00
57990;BME280;58373;51.824;5.564;2023-01-27T01:04:31;102444.53;;;2.64;100.00
57990;BME280;58373;51.824;5.564;2023-01-27T01:06:56;102446.28;;;2.62;100.00
57990;BME280;58373;51.824;5.564;2023-01-27T01:09:22;102446.28;;;2.62;100.00
57990;BME280;58373;51.824;5.564;2023-01-27T01:11:47;102450.59;;;2.60;100.00
57990;BME280;58373;51.824;5.564;2023-01-27T01:14:12;102437.84;;;2.57;100.00
57990;BME280;58373;51.824;5.564;2023-01-27T01:16:38;102446.50;;;2.53;100.00
57990;BME280;58373;51.824;5.564;2023-01-27T01:19:03;102456.59;;;2.59;100.00
57990;BME280;58373;51.824;5.564;2023-01-27T01:21:28;102453.22;;;2.57;100.00
57990;BME280;58373;51.824;5.564;2023-01-27T01:23:54;102449.88;;;2.55;100.00
57990;BME280;58373;51.824;5.564;2023-01-27T01:26:19;102448.09;;;2.57;100.00
57990;BME280;58373;51.824;5.564;2023-01-27T01:28:45;102457.50;;;2.57;100.00
57990;BME280;58373;51.824;5.564;2023-01-27T01:31:13;102465.19;;;2.57;100.00
57990;BME280;58373;51.824;5.564;2023-01-27T01:33:39;102469.44;;;2.58;100.00
57990;BME280;58373;51.824;5.564;2023-01-27T01:36:06;102461.72;;;2.59;100.00
57990;BME280;58373;51.824;5.564;2023-01-27T01:38:31;102466.03;;;2.57;100.00
57990;BME280;58373;51.824;5.564;2023-01-27T01:40:57;102458.44;;;2.54;100.00
57990;BME280;58373;51.824;5.564;2023-01-27T01:43:22;102468.53;;;2.60;100.00
57990;BME280;58373;51.824;5.564;2023-01-27T01:45:50;102471.97;;;2.59;100.00
57990;BME280;58373;51.824;5.564;2023-01-27T01:48:34;102481.34;;;2.60;100.00
57990;BME280;58373;51.824;5.564;2023-01-27T01:51:06;102476.28;;;2.57;100.00
57990;BME280;58373;51.824;5.564;2023-01-27T01:56:25;102458.44;;;2.54;100.00
57990;BME280;58373;51.824;5.564;2023-01-27T01:58:54;102465.28;;;2.52;100.00
57990;BME280;58373;51.824;5.564;2023-01-27T02:01:21;102467.03;;;2.50;100.00
57990;BME280;58373;51.824;5.564;2023-01-27T02:03:50;102477.28;;;2.50;100.00
57990;BME280;58373;51.824;5.564;2023-01-27T02:06:18;102479.84;;;2.50;100.00
57990;BME280;58373;51.824;5.564;2023-01-27T02:08:45;102487.63;;;2.47;100.00
57990;BME280;58373;51.824;5.564;2023-01-27T02:11:12;102471.59;;;2.37;100.00
57990;BME280;58373;51.824;5.564;2023-01-27T02:13:38;102482.63;;;2.41;99.92
57990;BME280;58373;51.824;5.564;2023-01-27T02:16:04;102482.63;;;2.41;99.98
57990;BME280;58373;51.824;5.564;2023-01-27T02:18:30;102484.34;;;2.39;100.00
57990;BME280;58373;51.824;5.564;2023-01-27T02:20:56;102478.38;;;2.38;100.00
57990;BME280;58373;51.824;5.564;2023-01-27T02:26:42;102487.84;;;2.35;100.00
57990;BME280;58373;51.824;5.564;2023-01-27T02:29:10;102492.97;;;2.35;100.00
57990;BME280;58373;51.824;5.564;2023-01-27T02:31:36;102496.41;;;2.34;100.00
57990;BME280;58373;51.824;5.564;2023-01-27T02:34:04;102482.81;;;2.32;100.00
57990;BME280;58373;51.824;5.564;2023-01-27T02:36:33;102498.03;;;2.38;100.00
57990;BME280;58373;51.824;5.564;2023-01-27T02:39:01;102506.59;;;2.37;100.00
57990;BME280;58373;51.824;5.564;2023-01-27T02:41:36;102498.88;;;2.38;100.00
57990;BME280;58373;51.824;5.564;2023-01-27T02:44:04;102491.22;;;2.37;100.00
57990;BME280;58373;51.824;5.564;2023-01-27T02:46:29;102492.91;;;2.38;100.00
57990;BME280;58373;51.824;5.564;2023-01-27T02:48:55;102494.63;;;2.37;100.00
57990;BME280;58373;51.824;5.564;2023-01-27T02:51:20;102490.41;;;2.35;100.00
57990;BME280;58373;51.824;5.564;2023-01-27T02:53:46;102500.59;;;2.38;100.00
57990;BME280;58373;51.824;5.564;2023-01-27T02:56:11;102495.44;;;2.39;100.00
57990;BME280;58373;51.824;5.564;2023-01-27T02:58:37;102501.44;;;2.38;100.00
57990;BME280;58373;51.824;5.564;2023-01-27T03:01:02;102499.72;;;2.39;100.00
57990;BME280;58373;51.824;5.564;2023-01-27T03:03:28;102511.63;;;2.40;100.00
57990;BME280;58373;51.824;5.564;2023-01-27T03:05:53;102492.06;;;2.37;100.00
57990;BME280;58373;51.824;5.564;2023-01-27T03:08:19;102507.34;;;2.40;100.00
57990;BME280;58373;51.824;5.564;2023-01-27T03:10:49;102508.31;;;2.35;100.00
57990;BME280;58373;51.824;5.564;2023-01-27T03:13:15;102508.31;;;2.35;100.00
57990;BME280;58373;51.824;5.564;2023-01-27T03:15:44;102508.31;;;2.35;100.00
57990;BME280;58373;51.824;5.564;2023-01-27T03:18:28;102504.97;;;2.33;100.00
57990;BME280;58373;51.824;5.564;2023-01-27T03:21:00;102509.22;;;2.34;100.00
57990;BME280;58373;51.824;5.564;2023-01-27T03:23:25;102510.09;;;2.33;100.00
57990;BME280;58373;51.824;5.564;2023-01-27T03:25:52;102515.28;;;2.30;100.00
57990;BME280;58373;51.824;5.564;2023-01-27T03:28:17;102511.88;;;2.28;100.00
57990;BME280;58373;51.824;5.564;2023-01-27T03:30:42;102507.72;;;2.24;100.00
57990;BME280;58373;51.824;5.564;2023-01-27T03:33:07;102522.97;;;2.28;100.00
57990;BME280;58373;51.824;5.564;2023-01-27T03:35:34;102522.22;;;2.25;100.00
57990;BME280;58373;51.824;5.564;2023-01-27T03:38:09;102522.13;;;2.28;100.00
57990;BME280;58373;51.824;5.564;2023-01-27T03:40:55;102523.94;;;2.23;100.00
57990;BME280;58373;51.824;5.564;2023-01-27T03:43:39;102527.34;;;2.23;100.00
57990;BME280;58373;51.824;5.564;2023-01-27T03:46:23;102532.38;;;2.28;100.00
57990;BME280;58373;51.824;5.564;2023-01-27T03:48:50;102533.31;;;2.24;100.00
57990;BME280;58373;51.824;5.564;2023-01-27T03:51:17;102529.03;;;2.24;100.00
57990;BME280;58373;51.824;5.564;2023-01-27T03:53:43;102529.00;;;2.26;100.00
57990;BME280;58373;51.824;5.564;2023-01-27T03:56:09;102527.31;;;2.25;100.00
57990;BME280;58373;51.824;5.564;2023-01-27T03:58:35;102528.09;;;2.30;100.00
57990;BME280;58373;51.824;5.564;2023-01-27T04:01:10;102534.06;;;2.29;100.00
57990;BME280;58373;51.824;5.564;2023-01-27T04:03:36;102541.66;;;2.33;100.00
57990;BME280;58373;51.824;5.564;2023-01-27T04:06:24;102537.44;;;2.31;100.00
57990;BME280;58373;51.824;5.564;2023-01-27T04:09:09;102532.25;;;2.34;100.00
57990;BME280;58373;51.824;5.564;2023-01-27T04:11:34;102538.19;;;2.36;100.00
57990;BME280;58373;51.824;5.564;2023-01-27T04:14:19;102540.78;;;2.34;100.00
57990;BME280;58373;51.824;5.564;2023-01-27T04:16:44;102535.69;;;2.33;100.00
57990;BME280;58373;51.824;5.564;2023-01-27T04:19:11;102545.88;;;2.36;100.00
57990;BME280;58373;51.824;5.564;2023-01-27T04:21:37;102545.88;;;2.36;100.00
57990;BME280;58373;51.824;5.564;2023-01-27T04:24:03;102543.31;;;2.36;100.00
57990;BME280;58373;51.824;5.564;2023-01-27T04:26:29;102541.66;;;2.33;100.00
57990;BME280;58373;51.824;5.564;2023-01-27T04:29:02;102545.94;;;2.33;100.00
57990;BME280;58373;51.824;5.564;2023-01-27T04:31:27;102539.94;;;2.34;100.00
57990;BME280;58373;51.824;5.564;2023-01-27T04:33:53;102540.81;;;2.33;100.00
57990;BME280;58373;51.824;5.564;2023-01-27T04:36:18;102554.38;;;2.38;100.00
57990;BME280;58373;51.824;5.564;2023-01-27T04:38:43;102553.53;;;2.37;100.00
57990;BME280;58373;51.824;5.564;2023-01-27T04:41:09;102556.88;;;2.39;100.00
57990;BME280;58373;51.824;5.564;2023-01-27T04:43:35;102555.22;;;2.38;100.00
57990;BME280;58373;51.824;5.564;2023-01-27T04:46:00;102557.81;;;2.37;100.00
57990;BME280;58373;51.824;5.564;2023-01-27T04:48:25;102550.88;;;2.42;100.00
57990;BME280;58373;51.824;5.564;2023-01-27T04:50:51;102552.56;;;2.43;100.00
57990;BME280;58373;51.824;5.564;2023-01-27T04:53:16;102555.09;;;2.45;99.76
57990;BME280;58373;51.824;5.564;2023-01-27T04:55:47;102552.53;;;2.45;100.00
57990;BME280;58373;51.824;5.564;2023-01-27T04:58:13;102555.03;;;2.46;100.00
57990;BME280;58373;51.824;5.564;2023-01-27T05:00:39;102548.31;;;2.40;100.00
57990;BME280;58373;51.824;5.564;2023-01-27T05:03:04;102549.09;;;2.46;99.64
57990;BME280;58373;51.824;5.564;2023-01-27T05:05:31;102552.56;;;2.43;99.30
57990;BME280;58373;51.824;5.564;2023-01-27T05:08:02;102559.25;;;2.50;98.84
57990;BME280;58373;51.824;5.564;2023-01-27T05:10:27;102558.41;;;2.50;98.97
57990;BME280;58373;51.824;5.564;2023-01-27T05:12:52;102561.75;;;2.52;99.19
57990;BME280;58373;51.824;5.564;2023-01-27T05:15:18;102569.50;;;2.50;99.64
57990;BME280;58373;51.824;5.564;2023-01-27T05:17:43;102578.81;;;2.54;99.05
57990;BME280;58373;51.824;5.564;2023-01-27T05:20:09;102560.94;;;2.51;99.08
57990;BME280;58373;51.824;5.564;2023-01-27T05:22:35;102565.16;;;2.52;99.11
57990;BME280;58373;51.824;5.564;2023-01-27T05:25:00;102572.00;;;2.52;99.31
57990;BME280;58373;51.824;5.564;2023-01-27T05:27:25;102571.91;;;2.56;98.80
57990;BME280;58373;51.824;5.564;2023-01-27T05:29:51;102563.44;;;2.54;98.88
57990;BME280;58373;51.824;5.564;2023-01-27T05:32:16;102567.63;;;2.58;98.54
57990;BME280;58373;51.824;5.564;2023-01-27T05:34:42;102557.44;;;2.55;98.63
57990;BME280;58373;51.824;5.564;2023-01-27T05:37:07;102564.25;;;2.56;98.49
57990;BME280;58373;51.824;5.564;2023-01-27T05:39:33;102574.47;;;2.56;98.30
57990;BME280;58373;51.824;5.564;2023-01-27T05:41:58;102571.84;;;2.61;98.43
57990;BME280;58373;51.824;5.564;2023-01-27T05:44:23;102574.44;;;2.59;98.52
57990;BME280;58373;51.824;5.564;2023-01-27T05:46:49;102581.25;;;2.60;98.68
57990;BME280;58373;51.824;5.564;2023-01-27T05:49:14;102569.31;;;2.59;98.39
57990;BME280;58373;51.824;5.564;2023-01-27T05:51:39;102571.00;;;2.60;97.42
57990;BME280;58373;51.824;5.564;2023-01-27T05:54:05;102579.47;;;2.62;97.48
57990;BME280;58373;51.824;5.564;2023-01-27T05:56:32;102582.88;;;2.64;97.81
57990;BME280;58373;51.824;5.564;2023-01-27T05:58:58;102581.16;;;2.65;97.67
57990;BME280;58373;51.824;5.564;2023-01-27T06:01:28;102586.25;;;2.66;98.02
57990;BME280;58373;51.824;5.564;2023-01-27T06:03:55;102578.63;;;2.62;97.83
57990;BME280;58373;51.824;5.564;2023-01-27T06:06:22;102589.69;;;2.65;98.08
57990;BME280;58373;51.824;5.564;2023-01-27T06:08:48;102593.13;;;2.64;97.82
57990;BME280;58373;51.824;5.564;2023-01-27T06:11:15;102587.16;;;2.64;97.55
57990;BME280;58373;51.824;5.564;2023-01-27T06:13:41;102591.38;;;2.66;97.33
57990;BME280;58373;51.824;5.564;2023-01-27T06:16:09;102598.16;;;2.67;96.92
57990;BME280;58373;51.824;5.564;2023-01-27T06:18:35;102586.28;;;2.63;97.39
57990;BME280;58373;51.824;5.564;2023-01-27T06:21:02;102593.88;;;2.68;97.08
57990;BME280;58373;51.824;5.564;2023-01-27T06:23:28;102599.94;;;2.65;96.84
57990;BME280;58373;51.824;5.564;2023-01-27T06:25:54;102598.16;;;2.67;96.73
57990;BME280;58373;51.824;5.564;2023-01-27T06:28:20;102606.69;;;2.70;97.02
57990;BME280;58373;51.824;5.564;2023-01-27T06:30:45;102599.03;;;2.66;96.73
57990;BME280;58373;51.824;5.564;2023-01-27T06:33:11;102608.41;;;2.67;96.81
57990;BME280;58373;51.824;5.564;2023-01-27T06:35:38;102611.81;;;2.70;95.84
57990;BME280;58373;51.824;5.564;2023-01-27T06:38:07;102603.25;;;2.69;95.39
57990;BME280;58373;51.824;5.564;2023-01-27T06:40:34;102611.81;;;2.70;96.04
57990;BME280;58373;51.824;5.564;2023-01-27T06:43:00;102621.13;;;2.72;95.96
57990;BME280;58373;51.824;5.564;2023-01-27T06:45:26;102610.06;;;2.72;95.71
57990;BME280;58373;51.824;5.564;2023-01-27T06:47:59;102625.41;;;2.72;95.52
57990;BME280;58373;51.824;5.564;2023-01-27T06:50:26;102619.50;;;2.68;95.33
57990;BME280;58373;51.824;5.564;2023-01-27T06:52:57;102622.03;;;2.71;94.90
57990;BME280;58373;51.824;5.564;2023-01-27T06:55:23;102606.78;;;2.65;95.88
57990;BME280;58373;51.824;5.564;2023-01-27T06:57:48;102626.34;;;2.67;95.52
57990;BME280;58373;51.824;5.564;2023-01-27T07:00:15;102620.38;;;2.67;95.49
57990;BME280;58373;51.824;5.564;2023-01-27T07:02:41;102627.22;;;2.66;95.58
57990;BME280;58373;51.824;5.564;2023-01-27T07:05:06;102616.19;;;2.63;95.95
57990;BME280;58373;51.824;5.564;2023-01-27T07:07:32;102626.44;;;2.64;95.83
57990;BME280;58373;51.824;5.564;2023-01-27T07:09:57;102629.00;;;2.64;95.94
57990;BME280;58373;51.824;5.564;2023-01-27T07:12:22;102629.00;;;2.64;96.13
57990;BME280;58373;51.824;5.564;2023-01-27T07:14:48;102632.41;;;2.63;95.92
57990;BME280;58373;51.824;5.564;2023-01-27T07:17:13;102620.47;;;2.62;95.94
57990;BME280;58373;51.824;5.564;2023-01-27T07:19:38;102627.34;;;2.60;95.64
57990;BME280;58373;51.824;5.564;2023-01-27T07:22:04;102629.03;;;2.61;96.00
57990;BME280;58373;51.824;5.564;2023-01-27T07:24:29;102621.44;;;2.57;96.23
57990;BME280;58373;51.824;5.564;2023-01-27T07:26:55;102630.78;;;2.59;96.13
57990;BME280;58373;51.824;5.564;2023-01-27T07:29:20;102637.63;;;2.57;96.29
57990;BME280;58373;51.824;5.564;2023-01-27T07:31:46;102642.00;;;2.54;96.89
57990;BME280;58373;51.824;5.564;2023-01-27T07:34:11;102636.06;;;2.50;96.28
57990;BME280;58373;51.824;5.564;2023-01-27T07:36:36;102629.31;;;2.46;96.00
57990;BME280;58373;51.824;5.564;2023-01-27T07:39:01;102636.94;;;2.49;96.13
57990;BME280;58373;51.824;5.564;2023-01-27T07:41:27;102645.50;;;2.48;95.83
57990;BME280;58373;51.824;5.564;2023-01-27T07:43:52;102643.00;;;2.45;95.87
57990;BME280;58373;51.824;5.564;2023-01-27T07:46:18;102633.69;;;2.41;96.05
57990;BME280;58373;51.824;5.564;2023-01-27T07:48:43;102645.63;;;2.42;95.84
57990;BME280;58373;51.824;5.564;2023-01-27T07:51:12;102660.97;;;2.44;95.21
57990;BME280;58373;51.824;5.564;2023-01-27T07:53:38;102646.50;;;2.41;95.78
57990;BME280;58373;51.824;5.564;2023-01-27T07:56:04;102650.75;;;2.40;95.92
57990;BME280;58373;51.824;5.564;2023-01-27T07:58:29;102651.66;;;2.38;95.64
57990;BME280;58373;51.824;5.564;2023-01-27T08:00:55;102658.47;;;2.39;96.20
57990;BME280;58373;51.824;5.564;2023-01-27T08:03:23;102661.88;;;2.41;96.58
57990;BME280;58373;51.824;5.564;2023-01-27T08:05:49;102653.31;;;2.42;96.06
57990;BME280;58373;51.824;5.564;2023-01-27T08:08:15;102670.34;;;2.43;96.07
57990;BME280;58373;51.824;5.564;2023-01-27T08:10:40;102660.13;;;2.43;95.42
57990;BME280;58373;51.824;5.564;2023-01-27T08:13:11;102670.28;;;2.46;95.87
57990;BME280;58373;51.824;5.564;2023-01-27T08:15:36;102668.59;;;2.45;95.28
57990;BME280;58373;51.824;5.564;2023-01-27T08:18:02;102675.41;;;2.48;95.25
57990;BME280;58373;51.824;5.564;2023-01-27T08:20:28;102667.81;;;2.43;95.22
57990;BME280;58373;51.824;5.564;2023-01-27T08:22:54;102678.81;;;2.48;95.59
57990;BME280;58373;51.824;5.564;2023-01-27T08:25:19;102687.31;;;2.50;95.10
57990;BME280;58373;51.824;5.564;2023-01-27T08:27:48;102687.31;;;2.50;94.63
57990;BME280;58373;51.824;5.564;2023-01-27T08:30:14;102687.31;;;2.50;94.47
57990;BME280;58373;51.824;5.564;2023-01-27T08:32:39;102692.50;;;2.46;94.65
57990;BME280;58373;51.824;5.564;2023-01-27T08:35:05;102706.06;;;2.51;94.16
57990;BME280;58373;51.824;5.564;2023-01-27T08:37:30;102697.66;;;2.44;94.18
57990;BME280;58373;51.824;5.564;2023-01-27T08:39:55;102716.34;;;2.49;93.85
57990;BME280;58373;51.824;5.564;2023-01-27T08:42:21;102709.53;;;2.48;94.19
57990;BME280;58373;51.824;5.564;2023-01-27T08:44:46;102719.81;;;2.45;93.81
57990;BME280;58373;51.824;5.564;2023-01-27T08:47:12;102691.94;;;2.30;93.62
57990;BME280;58373;51.824;5.564;2023-01-27T08:49:37;102718.13;;;2.44;92.68
57990;BME280;58373;51.824;5.564;2023-01-27T08:52:02;102716.44;;;2.43;94.07
57990;BME280;58373;51.824;5.564;2023-01-27T08:54:28;102715.63;;;2.43;93.40
57990;BME280;58373;51.824;5.564;2023-01-27T08:56:53;102717.34;;;2.42;93.65
57990;BME280;58373;51.824;5.564;2023-01-27T08:59:18;102715.63;;;2.43;93.54
57990;BME280;58373;51.824;5.564;2023-01-27T09:01:44;102716.44;;;2.43;93.71
57990;BME280;58373;51.824;5.564;2023-01-27T09:04:09;102732.66;;;2.44;94.05
57990;BME280;58373;51.824;5.564;2023-01-27T09:06:35;102733.50;;;2.44;93.92
57990;BME280;58373;51.824;5.564;2023-01-27T09:09:00;102722.41;;;2.44;94.45
57990;BME280;58373;51.824;5.564;2023-01-27T09:11:36;102723.25;;;2.44;94.31
57990;BME280;58373;51.824;5.564;2023-01-27T09:14:02;102725.00;;;2.42;94.00
57990;BME280;58373;51.824;5.564;2023-01-27T09:16:27;102719.94;;;2.39;94.44
57990;BME280;58373;51.824;5.564;2023-01-27T09:18:53;102729.28;;;2.42;94.25
57990;BME280;58373;51.824;5.564;2023-01-27T09:21:19;102729.28;;;2.42;94.57
57990;BME280;58373;51.824;5.564;2023-01-27T09:23:47;102735.28;;;2.39;94.40
57990;BME280;58373;51.824;5.564;2023-01-27T09:26:13;102736.97;;;2.40;94.48
57990;BME280;58373;51.824;5.564;2023-01-27T09:28:38;102742.97;;;2.39;94.09
57990;BME280;58373;51.824;5.564;2023-01-27T09:31:03;102757.44;;;2.43;95.14
57990;BME280;58373;51.824;5.564;2023-01-27T09:33:29;102747.19;;;2.43;94.32
57990;BME280;58373;51.824;5.564;2023-01-27T09:38:33;102761.69;;;2.44;94.79
57990;BME280;58373;51.824;5.564;2023-01-27T09:46:37;102766.06;;;2.37;94.55
57990;BME280;58373;51.824;5.564;2023-01-27T09:58:18;102774.47;;;2.44;95.27
57990;BME280;58373;51.824;5.564;2023-01-27T10:01:21;102772.72;;;2.46;95.46
57990;BME280;58373;51.824;5.564;2023-01-27T10:12:19;102771.88;;;2.46;95.62
57990;BME280;58373;51.824;5.564;2023-01-27T10:18:12;102758.28;;;2.44;96.04
57990;BME280;58373;51.824;5.564;2023-01-27T10:26:07;102766.00;;;2.42;95.55
57990;BME280;58373;51.824;5.564;2023-01-27T10:28:36;102766.00;;;2.42;95.15
57990;BME280;58373;51.824;5.564;2023-01-27T10:31:17;102766.00;;;2.42;95.83
57990;BME280;58373;51.824;5.564;2023-01-27T10:33:50;102754.06;;;2.41;96.06
57990;BME280;58373;51.824;5.564;2023-01-27T10:41:46;102754.88;;;2.43;96.27
57990;BME280;58373;51.824;5.564;2023-01-27T10:49:31;102743.78;;;2.43;96.64
57990;BME280;58373;51.824;5.564;2023-01-27T10:52:07;102753.97;;;2.47;96.23
57990;BME280;58373;51.824;5.564;2023-01-27T10:57:44;102761.53;;;2.52;96.68
57990;BME280;58373;51.824;5.564;2023-01-27T11:00:30;102760.66;;;2.54;96.74
57990;BME280;58373;51.824;5.564;2023-01-27T11:03:05;102755.53;;;2.54;97.25
57990;BME280;58373;51.824;5.564;2023-01-27T11:05:39;102758.09;;;2.54;96.66
57990;BME280;58373;51.824;5.564;2023-01-27T11:08:14;102753.00;;;2.53;96.76
57990;BME280;58373;51.824;5.564;2023-01-27T11:10:47;102752.94;;;2.56;96.13
57990;BME280;58373;51.824;5.564;2023-01-27T11:13:32;102753.78;;;2.56;96.84
57990;BME280;58373;51.824;5.564;2023-01-27T11:15:59;102756.31;;;2.58;96.41
57990;BME280;58373;51.824;5.564;2023-01-27T11:18:33;102743.53;;;2.56;97.09
57990;BME280;58373;51.824;5.564;2023-01-27T11:21:04;102743.53;;;2.56;95.89
57990;BME280;58373;51.824;5.564;2023-01-27T11:23:38;102738.41;;;2.56;96.90
57990;BME280;58373;51.824;5.564;2023-01-27T11:32:07;102734.88;;;2.63;95.14
57990;BME280;58373;51.824;5.564;2023-01-27T11:37:30;102722.94;;;2.62;95.41
57990;BME280;58373;51.824;5.564;2023-01-27T11:39:56;102730.63;;;2.64;95.49
57990;BME280;58373;51.824;5.564;2023-01-27T11:42:25;102724.63;;;2.63;96.44
57990;BME280;58373;51.824;5.564;2023-01-27T11:44:54;102726.38;;;2.61;96.12
57990;BME280;58373;51.824;5.564;2023-01-27T11:47:23;102721.22;;;2.64;96.26
57990;BME280;58373;51.824;5.564;2023-01-27T11:49:51;102724.63;;;2.63;96.14
57990;BME280;58373;51.824;5.564;2023-01-27T11:52:19;102719.50;;;2.63;95.86
57990;BME280;58373;51.824;5.564;2023-01-27T11:54:52;102723.69;;;2.67;96.76
57990;BME280;58373;51.824;5.564;2023-01-27T11:57:22;102706.69;;;2.65;95.92
57990;BME280;58373;51.824;5.564;2023-01-27T11:59:56;102716.88;;;2.66;95.43
57990;BME280;58373;51.824;5.564;2023-01-27T12:05:15;102713.41;;;2.69;96.35
57990;BME280;58373;51.824;5.564;2023-01-27T12:07:56;102705.75;;;2.67;95.14
57990;BME280;58373;51.824;5.564;2023-01-27T12:10:39;102704.88;;;2.69;95.32
57990;BME280;58373;51.824;5.564;2023-01-27T12:13:15;102714.22;;;2.73;95.21
57990;BME280;58373;51.824;5.564;2023-01-27T12:18:15;102698.72;;;2.79;94.89
57990;BME280;58373;51.824;5.564;2023-01-27T12:20:44;102697.84;;;2.80;94.74
57990;BME280;58373;51.824;5.564;2023-01-27T12:23:17;102713.19;;;2.83;95.04
57990;BME280;58373;51.824;5.564;2023-01-27T12:25:45;102701.16;;;2.85;94.67
57990;BME280;58373;51.824;5.564;2023-01-27T12:28:42;102700.38;;;2.83;94.27
57990;BME280;58373;51.824;5.564;2023-01-27T12:31:23;102700.25;;;2.89;94.79
57990;BME280;58373;51.824;5.564;2023-01-27T12:34:01;102695.91;;;2.92;94.17
57990;BME280;58373;51.824;5.564;2023-01-27T12:36:27;102686.56;;;2.90;93.94
57990;BME280;58373;51.824;5.564;2023-01-27T12:38:56;102693.31;;;2.94;93.62
57990;BME280;58373;51.824;5.564;2023-01-27T12:41:27;102686.44;;;2.96;92.55
57990;BME280;58373;51.824;5.564;2023-01-27T12:43:58;102693.22;;;2.97;92.96
57990;BME280;58373;51.824;5.564;2023-01-27T12:46:31;102695.78;;;2.99;92.96
57990;BME280;58373;51.824;5.564;2023-01-27T12:49:11;102686.38;;;2.99;92.97
57990;BME280;58373;51.824;5.564;2023-01-27T12:51:43;102679.50;;;3.01;92.37
57990;BME280;58373;51.824;5.564;2023-01-27T12:54:33;102669.28;;;2.98;92.56
57990;BME280;58373;51.824;5.564;2023-01-27T12:57:04;102677.72;;;3.03;92.74
57990;BME280;58373;51.824;5.564;2023-01-27T12:59:32;102672.56;;;3.06;93.90
57990;BME280;58373;51.824;5.564;2023-01-27T13:02:14;102678.47;;;3.10;93.86
57990;BME280;58373;51.824;5.564;2023-01-27T13:04:41;102668.22;;;3.08;92.81
57990;BME280;58373;51.824;5.564;2023-01-27T13:07:13;102680.91;;;3.14;92.71
57990;BME280;58373;51.824;5.564;2023-01-27T13:09:54;102670.63;;;3.17;93.97
57990;BME280;58373;51.824;5.564;2023-01-27T13:12:26;102670.72;;;3.13;93.08
57990;BME280;58373;51.824;5.564;2023-01-27T13:15:19;102676.50;;;3.21;92.61
57990;BME280;58373;51.824;5.564;2023-01-27T13:20:33;102662.97;;;3.14;91.89
57990;BME280;58373;51.824;5.564;2023-01-27T13:23:18;102676.50;;;3.23;92.50
57990;BME280;58373;51.824;5.564;2023-01-27T13:25:52;102674.81;;;3.22;91.62
57990;BME280;58373;51.824;5.564;2023-01-27T13:28:34;102674.69;;;3.26;91.47
57990;BME280;58373;51.824;5.564;2023-01-27T13:31:11;102677.25;;;3.28;91.21
57990;BME280;58373;51.824;5.564;2023-01-27T13:33:47;102676.31;;;3.30;92.06
57990;BME280;58373;51.824;5.564;2023-01-27T13:39:05;102679.72;;;3.31;90.64
57990;BME280;58373;51.824;5.564;2023-01-27T13:41:42;102678.94;;;3.29;90.46
57990;BME280;58373;51.824;5.564;2023-01-27T13:44:32;102672.03;;;3.31;91.21
57990;BME280;58373;51.824;5.564;2023-01-27T13:47:03;102675.47;;;3.30;91.04
57990;BME280;58373;51.824;5.564;2023-01-27T13:50:51;102678.84;;;3.32;91.60
57990;BME280;58373;51.824;5.564;2023-01-27T13:52:53;102677.16;;;3.31;91.39
57990;BME280;58373;51.824;5.564;2023-01-27T13:55:34;102674.59;;;3.31;91.58
57990;BME280;58373;51.824;5.564;2023-01-27T14:00:47;102679.72;;;3.31;91.63
57990;BME280;58373;51.824;5.564;2023-01-27T14:03:38;102685.69;;;3.33;92.21
57990;BME280;58373;51.824;5.564;2023-01-27T14:06:40;102689.94;;;3.32;91.71
57990;BME280;58373;51.824;5.564;2023-01-27T14:09:25;102685.69;;;3.31;91.84
57990;BME280;58373;51.824;5.564;2023-01-27T14:17:44;102693.59;;;3.22;90.77
57990;BME280;58373;51.824;5.564;2023-01-27T14:20:17;102683.41;;;3.19;90.51
57990;BME280;58373;51.824;5.564;2023-01-27T14:23:24;102691.94;;;3.19;90.68
57990;BME280;58373;51.824;5.564;2023-01-27T14:25:52;102688.53;;;3.19;91.32
57990;BME280;58373;51.824;5.564;2023-01-27T14:31:01;102703.03;;;3.22;91.09
57990;BME280;58373;51.824;5.564;2023-01-27T14:36:20;102701.38;;;3.17;91.58